Terminal Aerodrome Forecast
Issued by NWS Cheyenne, WY

Home | Current Version | Previous Version | Text Only | Print | Product List | Glossary On
Versions: 1 2 3 4 5 6 7 8 9 10 11 12 13 14 15 16 17 18 19 20 21
000
FTUS45 KCYS 270536
TAFCYS
TAF
KCYS 270536Z 2706/2806 27007KT P6SM BKN100
      TEMPO 2711/2713 18006KT 4SM BR SCT008
     FM271300 32007KT P6SM VCSH SCT030 BKN050
     FM271700 29017G27KT P6SM -RA BKN025 OVC050
     FM280000 30015G21KT P6SM BKN100=

USA.gov is the U.S. government's official web portal to all federal, state and local government web resources and services.